EZS16MJ LFBD-LSGG
Flight info
| Callsign | EZS16MJ |
|---|---|
| Flight time | N/A |
| Altitude | 30000 |
| Route | OBLOC DCT SECHE DCT NARAK DCT DITEV DCT MEN DCT NINUN DCT LATAM DCT ETREK DCT LUXAN G53 LTP Z16 BELUS |
| Aircraft | A319/M-SDE3FGHIRWY/LB1 |
Departure
| Time | 2026-04-29 20:59 |
|---|---|
| Airport | Bordeaux–Mérignac Airport (LFBD) |
Arrival
| Time | N/A |
|---|---|
| Airport | Geneva International Airport (LSGG) |
| Time | Latitude | Longitude | Altitude | Speed | Heading |
|---|---|---|---|---|---|
| 2026-04-29 20:33 | 44.82896 | -0.70072 | 169 ft | 0 kts | 57° |
| 2026-04-29 20:48 | 44.82882 | -0.70100 | 169 ft | 4 kts | 42° |
| 2026-04-29 20:49 | 44.82863 | -0.70116 | 169 ft | 4 kts | 13° |
| 2026-04-29 20:49 | 44.82838 | -0.70115 | 169 ft | 4 kts | 320° |
| 2026-04-29 20:49 | 44.82825 | -0.70087 | 170 ft | 4 kts | 286° |
| 2026-04-29 20:49 | 44.82823 | -0.70073 | 170 ft | 0 kts | 286° |
| 2026-04-29 20:52 | 44.82823 | -0.70074 | 170 ft | 0 kts | 286° |
| 2026-04-29 20:52 | 44.82826 | -0.70091 | 170 ft | 4 kts | 286° |
| 2026-04-29 20:52 | 44.82833 | -0.70151 | 170 ft | 8 kts | 250° |
| 2026-04-29 20:52 | 44.82792 | -0.70220 | 170 ft | 11 kts | 267° |
| 2026-04-29 20:53 | 44.82813 | -0.70330 | 170 ft | 13 kts | 286° |
| 2026-04-29 20:53 | 44.82841 | -0.70463 | 170 ft | 15 kts | 287° |
| 2026-04-29 20:53 | 44.82874 | -0.70620 | 170 ft | 18 kts | 286° |
| 2026-04-29 20:53 | 44.82912 | -0.70802 | 170 ft | 21 kts | 287° |
| 2026-04-29 20:54 | 44.82860 | -0.71094 | 170 ft | 18 kts | 226° |
| 2026-04-29 20:54 | 44.82766 | -0.71229 | 168 ft | 22 kts | 225° |
| 2026-04-29 20:54 | 44.82659 | -0.71382 | 171 ft | 23 kts | 226° |
| 2026-04-29 20:55 | 44.82542 | -0.71548 | 171 ft | 24 kts | 225° |
| 2026-04-29 20:55 | 44.82423 | -0.71718 | 171 ft | 25 kts | 225° |
| 2026-04-29 20:55 | 44.82302 | -0.71889 | 170 ft | 25 kts | 225° |
| 2026-04-29 20:55 | 44.82181 | -0.72063 | 170 ft | 25 kts | 226° |
| 2026-04-29 20:56 | 44.82091 | -0.72242 | 170 ft | 21 kts | 253° |
| 2026-04-29 20:56 | 44.82094 | -0.72417 | 169 ft | 16 kts | 298° |
| 2026-04-29 20:56 | 44.82144 | -0.72528 | 172 ft | 12 kts | 270° |
| 2026-04-29 20:56 | 44.82140 | -0.72558 | 173 ft | 2 kts | 251° |
| 2026-04-29 20:57 | 44.82127 | -0.72588 | 174 ft | 5 kts | 232° |
| 2026-04-29 20:57 | 44.82090 | -0.72642 | 173 ft | 10 kts | 225° |
| 2026-04-29 20:57 | 44.82025 | -0.72736 | 173 ft | 16 kts | 226° |
| 2026-04-29 20:57 | 44.81939 | -0.72821 | 173 ft | 11 kts | 195° |
| 2026-04-29 20:58 | 44.81912 | -0.72858 | 172 ft | 4 kts | 308° |
| 2026-04-29 20:58 | 44.81944 | -0.72851 | 173 ft | 7 kts | 36° |
| 2026-04-29 20:58 | 44.82059 | -0.72689 | 173 ft | 56 kts | 45° |
| 2026-04-29 20:58 | 44.82514 | -0.72038 | 171 ft | 127 kts | 45° |
| 2026-04-29 20:59 | 44.83256 | -0.70978 | 364 ft | 162 kts | 46° |
| 2026-04-29 20:59 | 44.84047 | -0.69854 | 1055 ft | 162 kts | 49° |
| 2026-04-29 20:59 | 44.84847 | -0.68705 | 1705 ft | 171 kts | 50° |
| 2026-04-29 20:59 | 44.85732 | -0.67422 | 2122 ft | 194 kts | 50° |
| 2026-04-29 21:00 | 44.86729 | -0.65975 | 2493 ft | 219 kts | 50° |
| 2026-04-29 21:00 | 44.87858 | -0.64345 | 2974 ft | 245 kts | 49° |
| 2026-04-29 21:00 | 44.89104 | -0.62553 | 3617 ft | 264 kts | 48° |
| 2026-04-29 21:00 | 44.90395 | -0.60665 | 4501 ft | 271 kts | 51° |
| 2026-04-29 21:01 | 44.91292 | -0.58318 | 5379 ft | 275 kts | 77° |
| 2026-04-29 21:01 | 44.91383 | -0.55635 | 6300 ft | 277 kts | 103° |
| 2026-04-29 21:01 | 44.90639 | -0.53158 | 7222 ft | 276 kts | 128° |
| 2026-04-29 21:01 | 44.89263 | -0.51281 | 8194 ft | 277 kts | 143° |
| 2026-04-29 21:02 | 44.87764 | -0.49564 | 9176 ft | 279 kts | 142° |
| 2026-04-29 21:02 | 44.86249 | -0.47829 | 10113 ft | 282 kts | 142° |
| 2026-04-29 21:02 | 44.84714 | -0.46068 | 10885 ft | 290 kts | 142° |
| 2026-04-29 21:02 | 44.83084 | -0.44197 | 11231 ft | 314 kts | 142° |
| 2026-04-29 21:03 | 44.81358 | -0.42214 | 11879 ft | 324 kts | 142° |
| 2026-04-29 21:03 | 44.79601 | -0.40191 | 12670 ft | 329 kts | 142° |
| 2026-04-29 21:03 | 44.77815 | -0.38138 | 13508 ft | 333 kts | 142° |
| 2026-04-29 21:03 | 44.76009 | -0.36064 | 14245 ft | 337 kts | 142° |
| 2026-04-29 21:04 | 44.74186 | -0.33954 | 14954 ft | 341 kts | 140° |
| 2026-04-29 21:04 | 44.72578 | -0.31469 | 15651 ft | 347 kts | 127° |
| 2026-04-29 21:04 | 44.71365 | -0.28508 | 16363 ft | 353 kts | 115° |
| 2026-04-29 21:04 | 44.70459 | -0.25274 | 17067 ft | 357 kts | 113° |
| 2026-04-29 21:05 | 44.69565 | -0.22047 | 17765 ft | 361 kts | 113° |
| 2026-04-29 21:05 | 44.68647 | -0.18752 | 18435 ft | 364 kts | 114° |
| 2026-04-29 21:05 | 44.67713 | -0.15421 | 19046 ft | 367 kts | 114° |
| 2026-04-29 21:05 | 44.66685 | -0.12126 | 19665 ft | 370 kts | 117° |
| 2026-04-29 21:06 | 44.65560 | -0.08867 | 20283 ft | 372 kts | 119° |
| 2026-04-29 21:06 | 44.64381 | -0.05618 | 20898 ft | 375 kts | 120° |
| 2026-04-29 21:06 | 44.63178 | -0.02350 | 21512 ft | 378 kts | 120° |
| 2026-04-29 21:06 | 44.61966 | 0.00947 | 22110 ft | 381 kts | 120° |
| 2026-04-29 21:07 | 44.60755 | 0.04281 | 22708 ft | 385 kts | 119° |
| 2026-04-29 21:07 | 44.59548 | 0.07646 | 23311 ft | 388 kts | 119° |
| 2026-04-29 21:07 | 44.58334 | 0.11055 | 23830 ft | 392 kts | 119° |
| 2026-04-29 21:07 | 44.57113 | 0.14499 | 24271 ft | 396 kts | 119° |
| 2026-04-29 21:08 | 44.55882 | 0.17967 | 24729 ft | 399 kts | 119° |
| 2026-04-29 21:08 | 44.54638 | 0.21459 | 25196 ft | 401 kts | 119° |
| 2026-04-29 21:08 | 44.53369 | 0.25016 | 25669 ft | 404 kts | 119° |
| 2026-04-29 21:08 | 44.52109 | 0.28548 | 26104 ft | 406 kts | 119° |
| 2026-04-29 21:09 | 44.50857 | 0.32052 | 26549 ft | 409 kts | 119° |
| 2026-04-29 21:09 | 44.49581 | 0.35617 | 26996 ft | 411 kts | 119° |
| 2026-04-29 21:09 | 44.48293 | 0.39207 | 27442 ft | 413 kts | 120° |
| 2026-04-29 21:09 | 44.46998 | 0.42813 | 27889 ft | 416 kts | 120° |
| 2026-04-29 21:10 | 44.45677 | 0.46483 | 28321 ft | 418 kts | 120° |
| 2026-04-29 21:10 | 44.44436 | 0.50181 | 28743 ft | 423 kts | 114° |
| 2026-04-29 21:10 | 44.43604 | 0.54101 | 29152 ft | 429 kts | 104° |
| 2026-04-29 21:10 | 44.43123 | 0.58245 | 29559 ft | 433 kts | 102° |
| 2026-04-29 21:11 | 44.42661 | 0.62426 | 29905 ft | 436 kts | 102° |
| 2026-04-29 21:11 | 44.41744 | 0.70647 | 29968 ft | 411 kts | 102° |
| 2026-04-29 21:12 | 44.40862 | 0.78443 | 29966 ft | 404 kts | 102° |
| 2026-04-29 21:12 | 44.39975 | 0.86189 | 29969 ft | 403 kts | 102° |
| 2026-04-29 21:13 | 44.39090 | 0.93923 | 29973 ft | 403 kts | 102° |
| 2026-04-29 21:13 | 44.38199 | 1.01673 | 29973 ft | 404 kts | 102° |
| 2026-04-29 21:14 | 44.37309 | 1.09420 | 29969 ft | 404 kts | 102° |
| 2026-04-29 21:14 | 44.36404 | 1.17201 | 29983 ft | 413 kts | 102° |
| 2026-04-29 21:15 | 44.35476 | 1.25112 | 29981 ft | 408 kts | 102° |
| 2026-04-29 21:15 | 44.34569 | 1.32861 | 29985 ft | 406 kts | 102° |
| 2026-04-29 21:16 | 44.33648 | 1.40691 | 29990 ft | 406 kts | 102° |
| 2026-04-29 21:16 | 44.32880 | 1.47161 | 29993 ft | 407 kts | 102° |
| 2026-04-29 21:17 | 44.31781 | 1.56272 | 29991 ft | 407 kts | 102° |
| 2026-04-29 21:17 | 44.30996 | 1.62749 | 29991 ft | 407 kts | 102° |
| 2026-04-29 21:18 | 44.30056 | 1.70548 | 29991 ft | 408 kts | 101° |
| 2026-04-29 21:18 | 44.30139 | 1.78476 | 29988 ft | 413 kts | 81° |
| 2026-04-29 21:19 | 44.31457 | 1.86295 | 29991 ft | 414 kts | 78° |
| 2026-04-29 21:19 | 44.32773 | 1.94121 | 29994 ft | 414 kts | 78° |
| 2026-04-29 21:20 | 44.34074 | 2.01952 | 30006 ft | 414 kts | 78° |
| 2026-04-29 21:20 | 44.35370 | 2.09798 | 30018 ft | 414 kts | 78° |
| 2026-04-29 21:21 | 44.36660 | 2.17637 | 30027 ft | 414 kts | 78° |
| 2026-04-29 21:21 | 44.37945 | 2.25488 | 30040 ft | 414 kts | 78° |
| 2026-04-29 21:22 | 44.39232 | 2.33338 | 30045 ft | 414 kts | 78° |
| 2026-04-29 21:22 | 44.40515 | 2.41192 | 30044 ft | 414 kts | 78° |
| 2026-04-29 21:23 | 44.41794 | 2.49042 | 30045 ft | 414 kts | 78° |
| 2026-04-29 21:23 | 44.43061 | 2.56897 | 30044 ft | 414 kts | 79° |
| 2026-04-29 21:24 | 44.44317 | 2.64755 | 30042 ft | 414 kts | 79° |
| 2026-04-29 21:24 | 44.45573 | 2.72616 | 30041 ft | 414 kts | 79° |
| 2026-04-29 21:25 | 44.46820 | 2.80475 | 30042 ft | 414 kts | 79° |
| 2026-04-29 21:25 | 44.48164 | 2.88308 | 30042 ft | 415 kts | 72° |
| 2026-04-29 21:26 | 44.50858 | 2.95432 | 30050 ft | 416 kts | 57° |
| 2026-04-29 21:26 | 44.54100 | 3.02158 | 30046 ft | 417 kts | 57° |
| 2026-04-29 21:27 | 44.57335 | 3.08900 | 30055 ft | 416 kts | 57° |
| 2026-04-29 21:27 | 44.60557 | 3.15645 | 30061 ft | 416 kts | 57° |
| 2026-04-29 21:28 | 44.63559 | 3.22581 | 30064 ft | 415 kts | 61° |
| 2026-04-29 21:28 | 44.66329 | 3.29695 | 30065 ft | 415 kts | 62° |
| 2026-04-29 21:29 | 44.69094 | 3.36818 | 30062 ft | 415 kts | 61° |
| 2026-04-29 21:29 | 44.71908 | 3.43904 | 30064 ft | 415 kts | 60° |
| 2026-04-29 21:30 | 44.74740 | 3.50980 | 30062 ft | 415 kts | 60° |
| 2026-04-29 21:30 | 44.77563 | 3.58064 | 30064 ft | 415 kts | 60° |
| 2026-04-29 21:31 | 44.80377 | 3.65157 | 30064 ft | 415 kts | 60° |
| 2026-04-29 21:31 | 44.83162 | 3.72206 | 30075 ft | 415 kts | 60° |
| 2026-04-29 21:32 | 44.85958 | 3.79307 | 30074 ft | 414 kts | 60° |
| 2026-04-29 21:32 | 44.88752 | 3.86417 | 30070 ft | 414 kts | 60° |
| 2026-04-29 21:33 | 44.91543 | 3.93528 | 30073 ft | 414 kts | 60° |
| 2026-04-29 21:33 | 44.94336 | 4.00650 | 30074 ft | 415 kts | 60° |
| 2026-04-29 21:34 | 44.97120 | 4.07781 | 30070 ft | 415 kts | 60° |
| 2026-04-29 21:34 | 44.99906 | 4.14924 | 30069 ft | 415 kts | 60° |
| 2026-04-29 21:35 | 45.02665 | 4.22033 | 30065 ft | 416 kts | 60° |
| 2026-04-29 21:35 | 45.05436 | 4.29207 | 30062 ft | 416 kts | 60° |
| 2026-04-29 21:36 | 45.08213 | 4.36397 | 30068 ft | 417 kts | 60° |
| 2026-04-29 21:36 | 45.10987 | 4.43599 | 30057 ft | 417 kts | 60° |
| 2026-04-29 21:37 | 45.13769 | 4.50811 | 30057 ft | 418 kts | 60° |
| 2026-04-29 21:37 | 45.16550 | 4.58058 | 30074 ft | 424 kts | 60° |
| 2026-04-29 21:37 | 45.17976 | 4.61796 | 30077 ft | 438 kts | 60° |
| 2026-04-29 21:38 | 45.19441 | 4.65634 | 30026 ft | 444 kts | 60° |
| 2026-04-29 21:38 | 45.20899 | 4.69455 | 29030 ft | 440 kts | 60° |
| 2026-04-29 21:38 | 45.22348 | 4.73253 | 28058 ft | 435 kts | 60° |
| 2026-04-29 21:38 | 45.23756 | 4.76948 | 27211 ft | 428 kts | 60° |
| 2026-04-29 21:39 | 45.25159 | 4.80645 | 26747 ft | 412 kts | 60° |
| 2026-04-29 21:39 | 45.26497 | 4.84179 | 26320 ft | 402 kts | 60° |
| 2026-04-29 21:39 | 45.27816 | 4.87662 | 25872 ft | 400 kts | 60° |
| 2026-04-29 21:39 | 45.29111 | 4.91084 | 25431 ft | 398 kts | 60° |
| 2026-04-29 21:40 | 45.30416 | 4.94535 | 24987 ft | 396 kts | 60° |
| 2026-04-29 21:40 | 45.31714 | 4.97969 | 24531 ft | 394 kts | 60° |
| 2026-04-29 21:40 | 45.33005 | 5.01391 | 24075 ft | 392 kts | 60° |
| 2026-04-29 21:40 | 45.34289 | 5.04801 | 23593 ft | 391 kts | 60° |
| 2026-04-29 21:41 | 45.35571 | 5.08210 | 23073 ft | 389 kts | 60° |
| 2026-04-29 21:41 | 45.36838 | 5.11586 | 22605 ft | 386 kts | 60° |
| 2026-04-29 21:41 | 45.38097 | 5.14942 | 22130 ft | 383 kts | 60° |
| 2026-04-29 21:41 | 45.39347 | 5.18276 | 21662 ft | 380 kts | 61° |
| 2026-04-29 21:42 | 45.40585 | 5.21586 | 21206 ft | 378 kts | 61° |
| 2026-04-29 21:42 | 45.41815 | 5.24874 | 20741 ft | 375 kts | 61° |
| 2026-04-29 21:42 | 45.43037 | 5.28141 | 20279 ft | 372 kts | 61° |
| 2026-04-29 21:42 | 45.44249 | 5.31386 | 19831 ft | 370 kts | 61° |
| 2026-04-29 21:43 | 45.45450 | 5.34614 | 19373 ft | 368 kts | 61° |
| 2026-04-29 21:43 | 45.46644 | 5.37824 | 18929 ft | 366 kts | 61° |
| 2026-04-29 21:43 | 45.47868 | 5.40989 | 18484 ft | 363 kts | 56° |
| 2026-04-29 21:43 | 45.49450 | 5.43766 | 18008 ft | 360 kts | 43° |
| 2026-04-29 21:44 | 45.51397 | 5.45958 | 17572 ft | 355 kts | 31° |
| 2026-04-29 21:44 | 45.53520 | 5.47724 | 17146 ft | 351 kts | 29° |
| 2026-04-29 21:44 | 45.55622 | 5.49467 | 16728 ft | 348 kts | 30° |
| 2026-04-29 21:44 | 45.57705 | 5.51202 | 16325 ft | 345 kts | 30° |
| 2026-04-29 21:45 | 45.59773 | 5.52926 | 15908 ft | 343 kts | 30° |
| 2026-04-29 21:45 | 45.61826 | 5.54637 | 15497 ft | 341 kts | 30° |
| 2026-04-29 21:45 | 45.63865 | 5.56338 | 15093 ft | 338 kts | 30° |
| 2026-04-29 21:45 | 45.65865 | 5.58008 | 14761 ft | 335 kts | 30° |
| 2026-04-29 21:46 | 45.67840 | 5.59656 | 14637 ft | 323 kts | 30° |
| 2026-04-29 21:46 | 45.69791 | 5.61239 | 14475 ft | 314 kts | 28° |
| 2026-04-29 21:46 | 45.71675 | 5.62725 | 14162 ft | 312 kts | 28° |
| 2026-04-29 21:46 | 45.73576 | 5.64208 | 13824 ft | 311 kts | 28° |
| 2026-04-29 21:47 | 45.75470 | 5.65682 | 13437 ft | 309 kts | 28° |
| 2026-04-29 21:47 | 45.77354 | 5.67152 | 13083 ft | 307 kts | 28° |
| 2026-04-29 21:47 | 45.79131 | 5.68551 | 12727 ft | 306 kts | 28° |
| 2026-04-29 21:47 | 45.80988 | 5.70020 | 12363 ft | 304 kts | 28° |
| 2026-04-29 21:48 | 45.82836 | 5.71484 | 12012 ft | 302 kts | 28° |
| 2026-04-29 21:48 | 45.84670 | 5.72938 | 11657 ft | 301 kts | 28° |
| 2026-04-29 21:48 | 45.86499 | 5.74387 | 11304 ft | 299 kts | 28° |
| 2026-04-29 21:48 | 45.88362 | 5.75663 | 10937 ft | 296 kts | 18° |
| 2026-04-29 21:49 | 45.90359 | 5.76334 | 10598 ft | 294 kts | 10° |
| 2026-04-29 21:49 | 45.92364 | 5.76885 | 10251 ft | 293 kts | 10° |
| 2026-04-29 21:49 | 45.94360 | 5.77441 | 9897 ft | 291 kts | 11° |
| 2026-04-29 21:49 | 45.96343 | 5.77995 | 9507 ft | 289 kts | 10° |
| 2026-04-29 21:50 | 45.98274 | 5.78535 | 9283 ft | 282 kts | 11° |
| 2026-04-29 21:50 | 46.00164 | 5.79060 | 9151 ft | 271 kts | 10° |
| 2026-04-29 21:50 | 46.01966 | 5.79663 | 9020 ft | 262 kts | 21° |
| 2026-04-29 21:50 | 46.03424 | 5.81112 | 8875 ft | 252 kts | 45° |
| 2026-04-29 21:51 | 46.04632 | 5.82883 | 8759 ft | 243 kts | 45° |
| 2026-04-29 21:51 | 46.05800 | 5.84594 | 8618 ft | 236 kts | 45° |
| 2026-04-29 21:51 | 46.08019 | 5.87834 | 8365 ft | 219 kts | 45° |
| 2026-04-29 21:52 | 46.09074 | 5.89367 | 8222 ft | 212 kts | 45° |
| 2026-04-29 21:52 | 46.10078 | 5.90828 | 8099 ft | 197 kts | 45° |
| 2026-04-29 21:52 | 46.11003 | 5.92173 | 7946 ft | 183 kts | 45° |
| 2026-04-29 21:52 | 46.11904 | 5.93485 | 7473 ft | 187 kts | 45° |
| 2026-04-29 21:53 | 46.12826 | 5.94827 | 7041 ft | 189 kts | 45° |
| 2026-04-29 21:53 | 46.13749 | 5.96173 | 6645 ft | 187 kts | 46° |
| 2026-04-29 21:53 | 46.14655 | 5.97494 | 6093 ft | 186 kts | 46° |
| 2026-04-29 21:53 | 46.15559 | 5.98813 | 5569 ft | 183 kts | 46° |
| 2026-04-29 21:54 | 46.16448 | 6.00110 | 5052 ft | 181 kts | 46° |
| 2026-04-29 21:54 | 46.17324 | 6.01389 | 4549 ft | 177 kts | 46° |
| 2026-04-29 21:54 | 46.18178 | 6.02639 | 4011 ft | 173 kts | 46° |
| 2026-04-29 21:54 | 46.19013 | 6.03862 | 3440 ft | 170 kts | 46° |
| 2026-04-29 21:55 | 46.19839 | 6.05073 | 2934 ft | 170 kts | 46° |
| 2026-04-29 21:55 | 46.20677 | 6.06302 | 2246 ft | 172 kts | 45° |
| 2026-04-29 21:55 | 46.21479 | 6.07496 | 1806 ft | 160 kts | 45° |
| 2026-04-29 21:55 | 46.22211 | 6.08559 | 1604 ft | 141 kts | 45° |
| 2026-04-29 21:56 | 46.22875 | 6.09535 | 1433 ft | 132 kts | 45° |
| 2026-04-29 21:56 | 46.23458 | 6.10385 | 1389 ft | 102 kts | 45° |
| 2026-04-29 21:56 | 46.23651 | 6.10666 | 1382 ft | 85 kts | 45° |